createdAt,value
2018-09-13T00:02:27.102Z,65.17
2018-09-13T00:05:00.401Z,65.02
2018-09-13T00:07:33.750Z,65.26
2018-09-13T00:10:07.076Z,65.24
2018-09-13T00:12:40.517Z,65.47
2018-09-13T00:15:13.810Z,65.24
2018-09-13T00:17:47.142Z,64.99
2018-09-13T00:20:20.525Z,65.27
2018-09-13T00:22:53.853Z,65.05
2018-09-13T00:25:27.144Z,65.20
2018-09-13T00:28:00.478Z,65.51
2018-09-13T00:30:33.768Z,65.27
2018-09-13T00:33:07.425Z,64.98
2018-09-13T00:35:41.460Z,65.20
2018-09-13T00:38:14.797Z,65.08
2018-09-13T00:40:48.100Z,65.20
2018-09-13T00:43:21.504Z,65.31
2018-09-13T00:45:54.797Z,65.30
2018-09-13T00:48:28.120Z,65.28
2018-09-13T00:51:01.420Z,65.29
2018-09-13T00:53:34.744Z,65.21
2018-09-13T00:56:08.037Z,65.10
2018-09-13T00:58:41.691Z,65.19
2018-09-13T01:01:14.992Z,65.31
2018-09-13T01:03:48.296Z,65.11
2018-09-13T01:06:21.939Z,65.08
2018-09-13T01:08:55.333Z,65.22
2018-09-13T01:11:29.000Z,65.36
2018-09-13T01:14:02.345Z,64.98
2018-09-13T01:16:35.649Z,65.29
2018-09-13T01:19:09.058Z,65.25
2018-09-13T01:21:42.351Z,65.28
2018-09-13T01:24:15.668Z,65.03
2018-09-13T01:26:49.005Z,65.32
2018-09-13T01:29:22.314Z,65.16
2018-09-13T01:31:55.655Z,65.36
2018-09-13T01:34:28.965Z,65.17
2018-09-13T01:37:02.414Z,65.44
2018-09-13T01:39:35.725Z,65.22
2018-09-13T01:42:09.070Z,65.62
2018-09-13T01:44:42.384Z,65.23
2018-09-13T01:47:15.956Z,65.43
2018-09-13T01:49:49.240Z,65.86
2018-09-13T01:52:22.612Z,65.50
2018-09-13T01:54:55.907Z,65.30
2018-09-13T01:57:29.240Z,65.55
2018-09-13T02:00:02.566Z,65.47
2018-09-13T02:02:35.889Z,65.12
2018-09-13T02:05:09.208Z,65.46
2018-09-13T02:07:42.520Z,65.37
2018-09-13T02:10:15.848Z,65.57
2018-09-13T02:12:49.165Z,65.43
2018-09-13T02:15:22.460Z,65.51
2018-09-13T02:17:55.774Z,65.16
2018-09-13T02:20:29.085Z,65.51
2018-09-13T02:23:02.409Z,65.35
2018-09-13T02:25:35.700Z,65.32
2018-09-13T02:28:09.035Z,65.32
2018-09-13T02:30:42.347Z,65.01
2018-09-13T02:33:15.761Z,65.15
2018-09-13T02:35:49.072Z,65.44
2018-09-13T02:38:22.388Z,65.45
2018-09-13T02:40:55.708Z,65.57
2018-09-13T02:43:29.032Z,65.53
2018-09-13T02:46:02.353Z,65.76
2018-09-13T02:48:35.684Z,65.59
2018-09-13T02:51:08.988Z,65.43
2018-09-13T02:53:42.297Z,65.56
2018-09-13T02:56:15.605Z,65.62
2018-09-13T02:58:48.913Z,65.85
2018-09-13T03:01:22.226Z,65.61
2018-09-13T03:03:55.541Z,66.02
2018-09-13T03:06:28.859Z,65.81
2018-09-13T03:09:02.381Z,65.76
2018-09-13T03:11:35.704Z,65.99
2018-09-13T03:14:09.064Z,65.66
2018-09-13T03:16:42.444Z,65.61
2018-09-13T03:19:15.778Z,65.74
2018-09-13T03:21:49.087Z,65.91
2018-09-13T03:24:22.444Z,65.96
2018-09-13T03:26:55.860Z,66.05
2018-09-13T03:29:29.813Z,65.61
2018-09-13T03:32:03.132Z,65.83
2018-09-13T03:34:36.635Z,65.83
2018-09-13T03:37:10.105Z,65.82
2018-09-13T03:39:43.423Z,66.13
2018-09-13T03:42:16.724Z,65.61
2018-09-13T03:44:50.213Z,65.67
2018-09-13T03:47:23.528Z,65.50
2018-09-13T03:49:56.890Z,65.70
2018-09-13T03:52:30.193Z,65.72
2018-09-13T03:55:04.328Z,65.86
2018-09-13T03:57:37.644Z,65.87
2018-09-13T04:00:10.997Z,65.48
2018-09-13T04:02:44.423Z,66.07
2018-09-13T04:05:17.730Z,65.87
2018-09-13T04:07:51.120Z,65.63
2018-09-13T04:10:24.883Z,65.74
2018-09-13T04:12:58.196Z,65.69
2018-09-13T04:15:31.557Z,65.65
2018-09-13T04:18:04.994Z,65.76
2018-09-13T04:20:38.324Z,65.73
2018-09-13T04:23:11.638Z,65.83
2018-09-13T04:25:44.958Z,65.75
2018-09-13T04:28:18.268Z,65.78
2018-09-13T04:30:51.589Z,65.59
2018-09-13T04:33:24.908Z,65.33
2018-09-13T04:35:58.530Z,65.47
2018-09-13T04:38:31.780Z,65.51
2018-09-13T04:41:05.145Z,65.71
2018-09-13T04:43:38.554Z,65.70
2018-09-13T04:46:11.886Z,65.82
2018-09-13T04:48:45.177Z,65.88
2018-09-13T04:51:18.501Z,65.56
2018-09-13T04:53:51.785Z,65.46
2018-09-13T04:56:25.098Z,65.38
2018-09-13T04:58:58.488Z,65.69
2018-09-13T05:01:31.820Z,65.77
2018-09-13T05:04:05.144Z,65.66
2018-09-13T05:06:39.098Z,65.81
2018-09-13T05:09:13.740Z,65.54
2018-09-13T05:11:47.085Z,65.54
2018-09-13T05:14:20.397Z,65.63
2018-09-13T05:16:53.724Z,65.78
2018-09-13T05:19:27.072Z,65.85
2018-09-13T05:22:00.373Z,65.76
2018-09-13T05:24:33.665Z,65.60
2018-09-13T05:27:06.989Z,65.95
2018-09-13T05:29:40.338Z,65.76
2018-09-13T05:32:13.657Z,66.00
2018-09-13T05:34:46.988Z,65.91
2018-09-13T05:37:20.298Z,65.95
2018-09-13T05:39:53.610Z,65.93
2018-09-13T05:42:26.933Z,65.99
2018-09-13T05:45:00.232Z,65.73
2018-09-13T05:47:33.549Z,65.77
2018-09-13T05:50:06.881Z,65.97
2018-09-13T05:52:40.579Z,65.77
2018-09-13T05:55:13.872Z,65.97
2018-09-13T05:57:47.184Z,66.13
2018-09-13T06:00:20.469Z,65.70
2018-09-13T06:02:53.792Z,66.08
2018-09-13T06:05:27.096Z,66.03
2018-09-13T06:08:00.484Z,65.62
2018-09-13T06:10:33.798Z,65.61
2018-09-13T06:13:07.117Z,65.51
2018-09-13T06:15:40.649Z,65.72
2018-09-13T06:18:14.144Z,65.40
2018-09-13T06:20:47.477Z,65.34
2018-09-13T06:23:20.789Z,65.59
2018-09-13T06:25:54.107Z,65.78
2018-09-13T06:28:27.405Z,65.60
2018-09-13T06:31:00.708Z,65.51
2018-09-13T06:33:34.021Z,65.65
2018-09-13T06:36:07.336Z,65.49
2018-09-13T06:38:40.736Z,65.40
2018-09-13T06:41:14.055Z,65.33
2018-09-13T06:43:47.354Z,65.24
2018-09-13T06:46:20.779Z,64.99
2018-09-13T06:48:54.073Z,65.26
2018-09-13T06:51:27.406Z,65.29
2018-09-13T06:54:00.726Z,65.20
2018-09-13T06:56:34.042Z,64.59
2018-09-13T06:59:07.347Z,65.03
2018-09-13T07:01:40.726Z,64.73
2018-09-13T07:04:14.044Z,64.72
2018-09-13T07:06:47.373Z,64.44
2018-09-13T07:09:20.686Z,64.72
2018-09-13T07:11:54.002Z,64.66
2018-09-13T07:14:27.310Z,64.59
2018-09-13T07:17:00.620Z,64.67
2018-09-13T07:19:33.925Z,64.50
2018-09-13T07:22:07.233Z,64.53
2018-09-13T07:24:40.808Z,64.48
2018-09-13T07:27:14.110Z,64.23
2018-09-13T07:29:47.408Z,63.94
2018-09-13T07:32:20.732Z,64.25
2018-09-13T07:34:54.027Z,63.85
2018-09-13T07:37:27.513Z,64.17
2018-09-13T07:40:00.825Z,63.84
2018-09-13T07:42:34.242Z,63.83
2018-09-13T07:45:07.481Z,64.27
2018-09-13T07:47:40.818Z,63.75
2018-09-13T07:50:14.137Z,63.62
2018-09-13T07:52:47.477Z,63.51
2018-09-13T07:55:20.812Z,63.08
2018-09-13T07:57:54.161Z,63.40
2018-09-13T08:00:27.509Z,63.18
2018-09-13T08:03:00.829Z,62.74
2018-09-13T08:05:34.216Z,62.35
2018-09-13T08:08:07.529Z,62.74
2018-09-13T08:10:40.900Z,62.54
2018-09-13T08:13:14.213Z,62.48
2018-09-13T08:15:47.537Z,62.43
2018-09-13T08:18:20.846Z,62.35
2018-09-13T08:20:54.370Z,61.61
2018-09-13T08:23:27.864Z,62.30
2018-09-13T08:26:01.174Z,62.42
2018-09-13T08:28:34.516Z,62.42
2018-09-13T08:31:08.061Z,62.22
2018-09-13T08:33:41.480Z,62.24
2018-09-13T08:36:14.813Z,61.93
2018-09-13T08:38:48.635Z,61.78
2018-09-13T08:41:21.973Z,61.08
2018-09-13T08:43:55.356Z,61.68
2018-09-13T08:46:28.680Z,61.32
2018-09-13T08:49:02.286Z,61.67
2018-09-13T08:51:35.624Z,61.21
2018-09-13T08:54:08.976Z,61.32
2018-09-13T08:56:42.281Z,61.24
2018-09-13T08:59:15.667Z,60.66
2018-09-13T09:01:49.045Z,61.04
2018-09-13T09:04:22.723Z,60.01
2018-09-13T09:06:56.057Z,60.44
2018-09-13T09:09:29.399Z,59.76
2018-09-13T09:12:03.349Z,60.16
2018-09-13T09:14:36.716Z,59.46
2018-09-13T09:17:10.069Z,60.07
2018-09-13T09:19:43.422Z,59.67
2018-09-13T09:22:16.979Z,59.82
2018-09-13T09:24:50.409Z,59.39
2018-09-13T09:27:23.799Z,60.08
2018-09-13T09:29:57.520Z,59.90
2018-09-13T09:32:31.181Z,59.24
2018-09-13T09:35:05.026Z,59.22
2018-09-13T09:37:38.325Z,59.00
2018-09-13T09:40:11.685Z,58.95
2018-09-13T09:42:44.985Z,58.78
2018-09-13T09:45:27.806Z,59.11
2018-09-13T09:48:01.302Z,59.23
2018-09-13T09:50:34.703Z,57.75
2018-09-13T09:53:08.017Z,58.57
2018-09-13T09:55:41.484Z,56.92
2018-09-13T09:58:14.796Z,57.81
2018-09-13T10:00:53.639Z,57.66
2018-09-13T10:03:27.101Z,57.43
2018-09-13T10:06:00.557Z,54.98
2018-09-13T10:08:33.990Z,55.36
2018-09-13T10:11:07.354Z,55.94
2018-09-13T10:13:40.804Z,55.05
2018-09-13T10:16:19.700Z,56.46
2018-09-13T10:18:58.613Z,56.27
2018-09-13T10:21:37.368Z,55.38
2018-09-13T10:24:16.544Z,54.22
2018-09-13T10:26:55.109Z,54.95
2018-09-13T10:29:33.620Z,55.67
2018-09-13T10:32:12.267Z,53.83
2018-09-13T10:36:55.363Z,53.86
2018-09-13T10:39:35.768Z,54.30
2018-09-13T10:42:14.692Z,54.56
2018-09-13T10:44:53.304Z,52.88
2018-09-13T10:47:32.096Z,53.06
2018-09-13T10:50:11.065Z,53.49
2018-09-13T10:52:48.450Z,54.37
2018-09-13T10:55:21.865Z,54.44
2018-09-13T10:57:55.416Z,51.83
2018-09-13T11:00:28.852Z,53.54
2018-09-13T11:03:02.229Z,53.60
2018-09-13T11:05:36.155Z,53.01
2018-09-13T11:08:09.505Z,51.90
2018-09-13T11:10:42.959Z,51.71
2018-09-13T11:13:21.879Z,52.52
2018-09-13T11:15:55.333Z,52.23
2018-09-13T11:18:28.752Z,51.70
2018-09-13T11:21:02.442Z,52.07
2018-09-13T11:23:35.825Z,53.38
2018-09-13T11:26:09.308Z,51.95
2018-09-13T11:28:42.635Z,51.66
2018-09-13T11:31:16.004Z,50.82
2018-09-13T11:33:49.565Z,49.83
2018-09-13T11:36:22.887Z,51.02
2018-09-13T11:38:56.240Z,51.60
2018-09-13T11:41:29.568Z,48.68
2018-09-13T11:44:02.951Z,48.95
2018-09-13T11:46:36.904Z,49.07
2018-09-13T11:49:10.262Z,49.03
2018-09-13T11:51:43.640Z,48.42
2018-09-13T11:54:16.951Z,49.22
2018-09-13T11:56:50.324Z,49.05
2018-09-13T11:59:23.636Z,50.00
2018-09-13T12:01:57.272Z,47.83
2018-09-13T12:04:30.578Z,49.29
2018-09-13T12:07:04.013Z,49.12
2018-09-13T12:09:37.387Z,49.47
2018-09-13T12:12:10.762Z,48.69
2018-09-13T12:14:44.069Z,50.40
2018-09-13T12:17:17.423Z,49.47
2018-09-13T12:19:50.748Z,47.93
2018-09-13T12:22:24.080Z,48.51
2018-09-13T12:24:57.400Z,48.98
2018-09-13T12:27:30.820Z,49.07
2018-09-13T12:30:04.895Z,49.30
2018-09-13T12:32:38.240Z,48.87
2018-09-13T12:35:12.646Z,49.11
2018-09-13T12:37:45.978Z,50.28
2018-09-13T12:40:19.293Z,49.62
2018-09-13T12:42:52.609Z,48.52
2018-09-13T12:45:25.995Z,49.26
2018-09-13T12:47:59.314Z,50.13
2018-09-13T12:50:32.633Z,50.25
2018-09-13T12:53:06.118Z,49.99
2018-09-13T12:55:44.548Z,48.22
2018-09-13T12:58:17.867Z,47.49
2018-09-13T13:00:51.197Z,48.88
2018-09-13T13:03:24.517Z,49.16
2018-09-13T13:05:57.888Z,49.02
2018-09-13T13:08:31.206Z,49.70
2018-09-13T13:11:04.550Z,48.97
2018-09-13T13:13:37.886Z,50.87
2018-09-13T13:16:11.584Z,50.09
2018-09-13T13:18:44.909Z,50.37
2018-09-13T13:21:18.261Z,50.21
2018-09-13T13:23:51.610Z,49.53
2018-09-13T13:26:24.913Z,51.34
2018-09-13T13:28:58.244Z,52.80
2018-09-13T13:31:31.560Z,50.96
2018-09-13T13:34:04.948Z,49.92
2018-09-13T13:36:38.280Z,50.36
2018-09-13T13:39:11.802Z,49.23
2018-09-13T13:41:45.096Z,50.69
2018-09-13T13:44:18.432Z,50.69
2018-09-13T13:46:51.939Z,50.50
2018-09-13T13:49:25.343Z,52.49
2018-09-13T13:51:58.640Z,49.68
2018-09-13T13:54:32.032Z,49.81
2018-09-13T13:57:05.398Z,50.56
2018-09-13T13:59:40.284Z,49.66
2018-09-13T14:02:13.613Z,49.86
2018-09-13T14:04:46.946Z,50.37
2018-09-13T14:07:20.244Z,48.28
2018-09-13T14:09:53.663Z,48.57
2018-09-13T14:12:26.975Z,48.23
2018-09-13T14:15:01.203Z,48.00
2018-09-13T14:17:34.609Z,48.12
2018-09-13T14:20:08.065Z,48.92
2018-09-13T14:22:41.937Z,49.26
2018-09-13T14:25:15.296Z,48.24
2018-09-13T14:27:48.821Z,47.50
2018-09-13T14:30:22.324Z,48.38
2018-09-13T14:32:55.726Z,48.77
2018-09-13T14:35:29.375Z,49.52
2018-09-13T14:38:02.667Z,49.40
2018-09-13T14:40:36.021Z,48.67
2018-09-13T14:43:09.366Z,47.86
2018-09-13T14:45:42.734Z,48.45
2018-09-13T14:48:16.039Z,48.43
2018-09-13T14:50:49.408Z,48.02
2018-09-13T14:53:22.716Z,47.35
2018-09-13T14:55:56.050Z,47.88
2018-09-13T14:58:29.427Z,48.94
2018-09-13T15:01:06.936Z,48.75
2018-09-13T15:03:40.968Z,50.34
2018-09-13T15:06:14.326Z,49.38
2018-09-13T15:08:47.651Z,49.21
2018-09-13T15:11:20.993Z,50.26
2018-09-13T15:13:54.298Z,51.50
2018-09-13T15:16:28.135Z,51.01
2018-09-13T15:19:01.508Z,51.94
2018-09-13T15:21:35.162Z,50.75
2018-09-13T15:24:08.474Z,50.79
2018-09-13T15:26:41.809Z,50.10
2018-09-13T15:29:15.129Z,50.60
2018-09-13T15:31:48.456Z,50.29
2018-09-13T15:34:21.800Z,50.45
2018-09-13T15:36:55.144Z,50.44
2018-09-13T15:39:28.494Z,51.46
2018-09-13T15:42:01.855Z,51.40
2018-09-13T15:44:35.209Z,50.95
2018-09-13T15:47:08.621Z,51.33
2018-09-13T15:49:41.990Z,51.67
2018-09-13T15:52:15.292Z,50.90
2018-09-13T15:54:48.709Z,51.10
2018-09-13T15:57:21.996Z,50.63
2018-09-13T15:59:55.337Z,50.61
2018-09-13T16:02:28.666Z,50.66
2018-09-13T16:05:01.989Z,50.67
2018-09-13T16:07:35.324Z,51.89
2018-09-13T16:10:08.684Z,51.46
2018-09-13T16:12:42.052Z,51.66
2018-09-13T16:15:15.367Z,51.26
2018-09-13T16:17:48.662Z,51.61
2018-09-13T16:20:21.992Z,51.08
2018-09-13T16:22:55.385Z,51.48
2018-09-13T16:25:28.717Z,51.35
2018-09-13T16:28:02.166Z,51.96
2018-09-13T16:30:35.790Z,52.04
2018-09-13T16:33:09.687Z,52.49
2018-09-13T16:35:49.606Z,53.25
2018-09-13T16:38:29.424Z,53.55
2018-09-13T16:41:09.473Z,52.88
2018-09-13T16:43:48.295Z,53.83
2018-09-13T16:46:28.391Z,53.69
2018-09-13T16:49:02.503Z,53.44
2018-09-13T16:51:38.919Z,53.60
2018-09-13T16:54:12.336Z,53.76
2018-09-13T16:56:45.677Z,54.66
2018-09-13T16:59:19.023Z,54.29
2018-09-13T17:01:52.576Z,54.19
2018-09-13T17:04:26.030Z,54.78
2018-09-13T17:06:59.408Z,54.05
2018-09-13T17:09:33.627Z,53.75
2018-09-13T17:12:07.529Z,54.55
2018-09-13T17:14:40.891Z,54.41
2018-09-13T17:17:14.232Z,54.67
2018-09-13T17:19:47.573Z,54.39
2018-09-13T17:22:22.065Z,54.73
2018-09-13T17:24:55.611Z,55.03
2018-09-13T17:27:29.236Z,55.06
2018-09-13T17:30:02.541Z,55.53
2018-09-13T17:32:36.573Z,55.69
2018-09-13T17:35:09.982Z,55.61
2018-09-13T17:37:43.321Z,55.84
2018-09-13T17:40:16.664Z,55.82
2018-09-13T17:42:51.112Z,56.07
2018-09-13T17:45:24.496Z,55.69
2018-09-13T17:47:58.365Z,55.98
2018-09-13T17:50:32.242Z,56.43
2018-09-13T17:53:06.388Z,56.38
2018-09-13T17:55:39.980Z,56.56
2018-09-13T17:58:14.095Z,56.56
2018-09-13T18:00:48.031Z,56.91
2018-09-13T18:03:21.464Z,57.23
2018-09-13T18:05:56.247Z,57.19
2018-09-13T18:08:30.630Z,56.91
2018-09-13T18:11:05.056Z,57.19
2018-09-13T18:13:39.901Z,57.60
2018-09-13T18:16:13.988Z,57.30
2018-09-13T18:18:47.705Z,58.04
2018-09-13T18:21:21.537Z,57.79
2018-09-13T18:23:55.854Z,57.96
2018-09-13T18:26:30.062Z,58.29
2018-09-13T18:29:03.463Z,57.93
2018-09-13T18:31:36.951Z,58.44
2018-09-13T18:34:11.045Z,58.35
2018-09-13T18:36:44.751Z,58.78
2018-09-13T18:39:18.533Z,58.70
2018-09-13T18:41:52.134Z,58.74
2018-09-13T18:44:25.757Z,58.89
2018-09-13T18:46:59.053Z,59.18
2018-09-13T18:49:33.463Z,58.99
2018-09-13T18:52:07.144Z,58.95
2018-09-13T18:54:40.473Z,59.35
2018-09-13T18:57:14.740Z,59.49
2018-09-13T18:59:48.076Z,59.52
2018-09-13T19:02:21.402Z,59.34
2018-09-13T19:04:54.781Z,59.90
2018-09-13T19:07:28.171Z,59.78
2018-09-13T19:10:01.557Z,59.79
2018-09-13T19:12:38.611Z,59.99
2018-09-13T19:15:12.364Z,60.31
2018-09-13T19:17:45.679Z,60.32
2018-09-13T19:20:19.090Z,60.51
2018-09-13T19:22:52.830Z,60.46
2018-09-13T19:25:26.202Z,60.32
2018-09-13T19:27:59.544Z,60.92
2018-09-13T19:30:33.058Z,60.96
2018-09-13T19:33:06.458Z,60.52
2018-09-13T19:35:40.272Z,60.70
2018-09-13T19:38:13.656Z,60.82
2018-09-13T19:40:47.000Z,60.95
2018-09-13T19:43:20.522Z,61.32
2018-09-13T19:45:53.892Z,61.11
2018-09-13T19:48:27.209Z,61.16
2018-09-13T19:51:00.806Z,61.77
2018-09-13T19:53:34.057Z,61.75
2018-09-13T19:56:07.377Z,61.68
2018-09-13T19:58:40.691Z,61.70
2018-09-13T20:01:20.761Z,61.54
2018-09-13T20:03:55.371Z,61.65
2018-09-13T20:09:36.397Z,61.91
2018-09-13T20:12:10.016Z,61.86
2018-09-13T20:14:43.717Z,61.80
2018-09-13T20:17:17.166Z,61.52
2018-09-13T20:19:50.675Z,61.98
2018-09-13T20:22:24.115Z,61.76
2018-09-13T20:24:57.525Z,61.63
2018-09-13T20:27:30.898Z,61.67
2018-09-13T20:30:04.657Z,61.88
2018-09-13T20:32:38.102Z,62.30
2018-09-13T20:35:11.498Z,61.92
2018-09-13T20:37:44.885Z,62.05
2018-09-13T20:40:18.674Z,62.08
2018-09-13T20:42:52.888Z,62.24
2018-09-13T20:45:26.241Z,62.25
2018-09-13T20:47:59.574Z,62.18
2018-09-13T20:50:32.940Z,62.12
2018-09-13T20:53:06.408Z,62.20
2018-09-13T20:55:39.793Z,62.40
2018-09-13T20:58:13.150Z,62.35
2018-09-13T21:00:46.597Z,62.62
2018-09-13T21:03:19.882Z,62.43
2018-09-13T21:05:53.299Z,62.58
2018-09-13T21:08:26.664Z,62.85
2018-09-13T21:11:00.070Z,62.95
2018-09-13T21:13:33.469Z,62.80
2018-09-13T21:16:07.062Z,62.75
2018-09-13T21:18:40.497Z,62.62
2018-09-13T21:21:13.864Z,62.81
2018-09-13T21:23:47.482Z,63.07
2018-09-13T21:26:20.862Z,62.94
2018-09-13T21:28:54.278Z,63.13
2018-09-13T21:31:27.994Z,63.38
2018-09-13T21:34:01.352Z,63.20
2018-09-13T21:36:34.769Z,62.91
2018-09-13T21:39:09.737Z,63.07
2018-09-13T21:41:43.098Z,62.97
2018-09-13T21:44:16.504Z,63.00
2018-09-13T21:46:49.860Z,62.70
2018-09-13T21:49:23.237Z,63.18
2018-09-13T21:51:56.612Z,63.14
2018-09-13T21:54:29.940Z,63.10
2018-09-13T21:57:03.430Z,63.02
2018-09-13T21:59:36.912Z,63.42
2018-09-13T22:02:10.282Z,63.47
2018-09-13T22:04:43.660Z,63.51
2018-09-13T22:07:17.048Z,63.22
2018-09-13T22:09:50.456Z,63.92
2018-09-13T22:12:23.793Z,64.08
2018-09-13T22:14:57.187Z,63.98
2018-09-13T22:17:30.588Z,64.40
2018-09-13T22:20:04.029Z,64.42
2018-09-13T22:22:37.380Z,64.84
2018-09-13T22:25:10.751Z,64.49
2018-09-13T22:27:44.132Z,64.53
2018-09-13T22:30:18.160Z,64.93
2018-09-13T22:32:51.637Z,64.92
2018-09-13T22:35:25.014Z,65.31
2018-09-13T22:37:58.439Z,65.49
2018-09-13T22:40:31.790Z,64.95
2018-09-13T22:43:05.278Z,65.09
2018-09-13T22:45:38.661Z,65.17
2018-09-13T22:48:12.085Z,65.72
2018-09-13T22:50:45.448Z,65.06
2018-09-13T22:53:18.833Z,65.27
2018-09-13T22:55:52.338Z,65.20
2018-09-13T22:58:25.737Z,64.81
2018-09-13T23:00:59.182Z,65.12
2018-09-13T23:03:32.621Z,65.08
2018-09-13T23:06:06.165Z,65.23
2018-09-13T23:08:39.549Z,65.16
2018-09-13T23:11:12.921Z,65.12
2018-09-13T23:13:46.232Z,65.05
2018-09-13T23:16:19.566Z,65.14
2018-09-13T23:18:52.876Z,64.72
2018-09-13T23:21:26.225Z,64.66
2018-09-13T23:23:59.633Z,64.40
2018-09-13T23:26:32.998Z,64.40
2018-09-13T23:29:06.628Z,64.06
2018-09-13T23:31:40.071Z,64.34
2018-09-13T23:34:13.399Z,64.24
2018-09-13T23:36:46.751Z,64.42
2018-09-13T23:39:20.212Z,64.26
2018-09-13T23:41:53.461Z,63.93
2018-09-13T23:44:26.770Z,63.80
2018-09-13T23:47:00.106Z,63.46
2018-09-13T23:49:33.421Z,63.19
2018-09-13T23:52:06.857Z,63.45
2018-09-13T23:54:40.190Z,63.80
2018-09-13T23:57:13.546Z,63.52
2018-09-13T23:59:46.875Z,63.58
